CheckWX is a tool to help pilots better visualize weather data.  It is not intended as a substitute for an official pre-flight weather briefing.

14:22:06 UTC

KEOK METAR
Keokuk Municipal Airport
Keokuk, Iowa, USA
Current

27 mins ago

KEOK 091355Z AUTO 20009KT CLR 28/25 A2985 RMK AO2
Observed
Jul-9 @ 13:55 UTC
Wind
  • 200° at 9 KTS
Visibility
Cloud Levels
  • Clear skies
Temperature
28°C / 82°F
Dewpoint
25°C / 77°F
Humidity
84%
Altimeter
29.85" Hg
Pressure
1010.82 hPa
Previous

47 mins ago

KEOK 091335Z AUTO 19006KT 10SM CLR 27/24 A2985 RMK AO2
Observed
Jul-9 @ 13:35 UTC
Wind
  • 190° at 6 KTS
Visibility
10 SM
Flight Rules
VFR
Cloud Levels
  • Clear skies
Temperature
27°C / 81°F
Dewpoint
24°C / 75°F
Humidity
84%
Altimeter
29.85" Hg
Pressure
1010.82 hPa
Previous

1 hour ago

KEOK 091315Z AUTO 18005KT 10SM CLR 26/24 A2984 RMK AO2
Observed
Jul-9 @ 13:15 UTC
Wind
  • 180° at 5 KTS
Visibility
10 SM
Flight Rules
VFR
Cloud Levels
  • Clear skies
Temperature
26°C / 79°F
Dewpoint
24°C / 75°F
Humidity
89%
Altimeter
29.84" Hg
Pressure
1010.52 hPa